Humidity-temperature Sensor

Selected Measurement Type: Relative Humidity

 
Relative Humidity [%]     6 entries per hour
Showing data from 9/23/2014 (00:00:00 Z) to 9/16/2014 (00:01:00 Z)
Previous Next [ Day | 3-Days | 7-Days ]
First Last
Prev [ Day | 3-Days | 7-Days ] Next
First Last

Start Time:     :
End Time:     :     
Time (in GMT) :00 :50 :40 :30 :20 :10
Previous Next [ Day | 3-Days | 7-Days ]
First Last
Prev [ Day | 3-Days | 7-Days ] Next
First Last


123 => good data
MM => data is determined as missing
-- => data not received/configured
Back to Top Back to Top
9/23/2014 00:00 to 23:10 92.45 92.26 91.78 90.95 89.74 88.55
9/22/2014 23:00 to 22:10 83.51 83.19 83.70 84.04 85.46 85.99
9/22/2014 22:00 to 21:10 86.60 87.22 87.26 87.62 88.34 88.83
9/22/2014 21:00 to 20:10 88.77 88.13 86.37 85.84 83.81 83.93
9/22/2014 20:00 to 19:10 85.16 84.46 83.91 83.89 84.27 83.91
9/22/2014 19:00 to 18:10 83.59 83.13 83.06 83.28 83.68 83.81
9/22/2014 18:00 to 17:10 83.87 83.17 82.09 82.43 82.83 83.02
9/22/2014 17:00 to 16:10 83.38 83.97 83.17 83.28 82.66 82.13
9/22/2014 16:00 to 15:10 83.70 82.19 82.11 82.19 81.37 82.51
9/22/2014 15:00 to 14:10 82.87 83.08 83.64 84.14 85.76 85.65
9/22/2014 14:00 to 13:10 85.44 85.10 85.65 85.61 85.86 86.39
9/22/2014 13:00 to 12:10 87.32 87.73 87.41 87.28 86.50 86.39
9/22/2014 12:00 to 11:10 86.56 86.90 87.39 87.43 86.69 86.20
9/22/2014 11:00 to 10:10 85.42 85.33 85.95 85.86 85.63 86.09
9/22/2014 10:00 to 9:10 86.37 87.11 87.05 87.01 86.50 86.18
9/22/2014 09:00 to 8:10 86.56 86.37 86.94 87.13 87.41 86.88
9/22/2014 08:00 to 7:10 86.62 86.86 87.24 87.22 87.60 87.66
9/22/2014 07:00 to 6:10 87.77 88.13 88.41 88.09 87.54 87.79
9/22/2014 06:00 to 5:10 87.54 87.24 86.94 86.75 86.67 86.62
9/22/2014 05:00 to 4:10 87.26 88.36 87.30 85.37 86.54 87.81
9/22/2014 04:00 to 3:10 87.54 86.52 87.66 89.25 90.23 90.23
9/22/2014 03:00 to 2:10 89.34 88.91 88.68 87.73 84.63 84.50
9/22/2014 02:00 to 1:10 84.91 86.45 87.03 86.69 86.24 84.59
9/22/2014 01:00 to 0:10 84.21 84.00 83.44 84.38 84.97 84.08
9/22/2014 00:00 to 23:10 84.59 84.31 84.38 84.42 84.78 85.10
9/21/2014 23:00 to 22:10 86.20 87.88 88.87 88.83 88.45 87.26
9/21/2014 22:00 to 21:10 83.97 83.34 83.55 83.34 82.89 83.36
9/21/2014 21:00 to 20:10 82.89 82.79 82.77 82.98 82.83 82.87
9/21/2014 20:00 to 19:10 83.38 83.93 83.85 84.25 84.02 84.12
9/21/2014 19:00 to 18:10 84.89 84.97 85.61 86.41 86.90 87.45
9/21/2014 18:00 to 17:10 88.02 89.15 89.68 90.21 89.66 88.93
9/21/2014 17:00 to 16:10 87.43 83.57 81.52 81.58 81.98 83.47
9/21/2014 16:00 to 15:10 82.39 82.05 81.90 81.77 82.19 82.05
9/21/2014 15:00 to 14:10 82.47 83.13 83.85 83.89 84.44 84.55
9/21/2014 14:00 to 13:10 84.99 85.50 85.63 85.84 85.61 84.14
9/21/2014 13:00 to 12:10 83.11 83.11 83.44 83.47 83.23 83.42
9/21/2014 12:00 to 11:10 83.06 82.58 82.39 82.22 82.30 82.19
9/21/2014 11:00 to 10:10 81.96 82.00 81.92 81.83 81.79 81.81
9/21/2014 10:00 to 9:10 -- -- -- -- -- --
9/21/2014 09:00 to 8:10 80.31 81.77 82.79 82.53 82.15 81.05
9/21/2014 08:00 to 7:10 80.90 82.17 83.06 82.94 83.34 84.17
9/21/2014 07:00 to 6:10 83.83 83.59 82.51 81.35 81.56 81.58
9/21/2014 06:00 to 5:10 81.35 80.86 80.77 80.56 80.77 82.02
9/21/2014 05:00 to 4:10 81.79 81.73 81.83 83.57 83.64 83.59
9/21/2014 04:00 to 3:10 83.66 83.38 83.36 83.36 83.36 83.11
9/21/2014 03:00 to 2:10 83.21 82.66 81.81 82.26 82.53 82.75
9/21/2014 02:00 to 1:10 81.90 81.75 81.18 80.24 78.93 79.38
9/21/2014 01:00 to 0:10 81.09 79.61 79.76 79.65 78.99 77.19
9/21/2014 00:00 to 23:10 76.92 76.45 76.32 76.53 76.98 77.00
9/20/2014 23:00 to 22:10 76.45 76.53 76.53 76.66 76.79 76.87
9/20/2014 22:00 to 21:10 77.02 76.73 76.32 76.98 77.68 77.47
9/20/2014 21:00 to 20:10 77.83 78.06 78.04 77.36 78.00 77.13
9/20/2014 20:00 to 19:10 75.79 74.75 75.33 75.45 76.26 78.06
9/20/2014 19:00 to 18:10 77.51 77.17 75.58 74.29 73.44 72.91
9/20/2014 18:00 to 17:10 71.77 74.58 74.82 74.42 74.67 74.61
9/20/2014 17:00 to 16:10 74.99 75.54 74.71 76.30 76.73 75.84
9/20/2014 16:00 to 15:10 75.96 75.88 75.22 75.56 76.43 76.98
9/20/2014 15:00 to 14:10 76.81 76.43 76.60 77.04 77.30 77.85
9/20/2014 14:00 to 13:10 78.04 77.91 77.53 77.32 78.93 79.76
9/20/2014 13:00 to 12:10 78.78 77.91 78.06 77.47 77.38 77.38
9/20/2014 12:00 to 11:10 78.27 78.02 78.17 78.48 79.48 82.05
9/20/2014 11:00 to 10:10 81.18 80.73 79.57 79.52 79.33 78.99
9/20/2014 10:00 to 9:10 78.10 77.74 77.00 76.43 75.79 75.39
9/20/2014 09:00 to 8:10 75.64 75.92 75.35 75.11 75.01 74.73
9/20/2014 08:00 to 7:10 73.91 73.69 72.95 73.29 73.19 72.68
9/20/2014 07:00 to 6:10 72.61 73.50 73.44 73.95 73.97 74.65
9/20/2014 06:00 to 5:10 74.67 74.25 73.99 74.52 74.88 74.80
9/20/2014 05:00 to 4:10 74.46 73.52 74.05 73.72 73.23 74.08
9/20/2014 04:00 to 3:10 73.61 72.72 74.65 77.02 75.62 74.05
9/20/2014 03:00 to 2:10 73.80 74.80 75.28 75.11 76.00 76.96
9/20/2014 02:00 to 1:10 77.96 77.74 77.68 76.41 75.43 75.45
9/20/2014 01:00 to 0:10 74.75 74.56 73.82 74.03 73.14 71.47
9/20/2014 00:00 to 23:10 71.83 71.83 72.68 74.31 75.41 74.63
9/19/2014 23:00 to 22:10 71.32 70.81 71.55 70.90 71.09 70.85
9/19/2014 22:00 to 21:10 71.72 71.77 71.89 71.45 71.04 71.15
9/19/2014 21:00 to 20:10 71.51 71.28 70.96 71.34 72.53 72.00
9/19/2014 20:00 to 19:10 71.32 71.21 70.85 71.43 72.32 72.68
9/19/2014 19:00 to 18:10 72.59 73.36 73.19 73.48 73.84 72.57
9/19/2014 18:00 to 17:10 71.64 70.83 71.55 70.62 69.37 69.82
9/19/2014 17:00 to 16:10 69.60 71.60 72.44 71.53 70.26 69.90
9/19/2014 16:00 to 15:10 70.11 70.81 70.07 70.30 71.64 72.44
9/19/2014 15:00 to 14:10 71.98 71.32 71.51 72.15 70.71 72.30
9/19/2014 14:00 to 13:10 72.13 73.29 72.21 72.02 72.68 73.14
9/19/2014 13:00 to 12:10 73.69 73.04 72.91 73.16 72.89 72.91
9/19/2014 12:00 to 11:10 73.99 73.46 72.91 72.91 74.31 74.65
9/19/2014 11:00 to 10:10 74.78 74.05 73.25 74.82 74.61 75.18
9/19/2014 10:00 to 9:10 75.84 77.02 77.76 77.98 77.62 77.57
9/19/2014 09:00 to 8:10 76.90 76.05 77.45 76.32 75.48 76.75
9/19/2014 08:00 to 7:10 75.92 75.50 75.75 75.79 74.22 76.11
9/19/2014 07:00 to 6:10 76.43 75.69 75.52 74.84 74.48 74.37
9/19/2014 06:00 to 5:10 74.37 74.37 74.46 70.83 70.77 71.68
9/19/2014 05:00 to 4:10 70.32 69.07 68.86 70.75 71.11 72.04
9/19/2014 04:00 to 3:10 72.97 74.75 73.74 72.93 72.63 73.04
9/19/2014 03:00 to 2:10 74.44 74.52 74.18 75.20 75.64 74.27
9/19/2014 02:00 to 1:10 74.84 73.61 73.86 73.16 74.37 73.74
9/19/2014 01:00 to 0:10 73.25 72.23 70.56 70.73 70.49 72.76
9/19/2014 00:00 to 23:10 72.49 71.57 71.83 72.13 72.23 73.12
9/18/2014 23:00 to 22:10 74.25 74.71 74.99 73.55 71.32 72.68
9/18/2014 22:00 to 21:10 73.38 72.42 73.31 73.61 73.44 73.91
9/18/2014 21:00 to 20:10 73.10 72.13 71.89 71.49 70.22 70.49
9/18/2014 20:00 to 19:10 70.96 71.89 72.91 70.94 70.73 71.07
9/18/2014 19:00 to 18:10 71.17 70.45 70.79 71.43 70.35 70.92
9/18/2014 18:00 to 17:10 71.00 71.11 71.34 71.72 72.91 72.04
9/18/2014 17:00 to 16:10 72.57 71.21 74.14 73.91 76.41 76.05
9/18/2014 16:00 to 15:10 76.17 75.90 75.79 75.58 74.22 73.57
9/18/2014 15:00 to 14:10 73.50 75.31 74.54 74.73 75.18 75.20
9/18/2014 14:00 to 13:10 76.66 74.99 75.24 75.56 75.88 76.60
9/18/2014 13:00 to 12:10 75.43 75.16 76.11 75.75 75.07 75.20
9/18/2014 12:00 to 11:10 75.86 77.04 76.96 77.21 76.83 77.66
9/18/2014 11:00 to 10:10 78.19 78.70 77.32 77.53 77.93 77.70
9/18/2014 10:00 to 9:10 -- -- -- -- -- --
9/18/2014 09:00 to 8:10 76.92 76.58 76.22 76.41 77.04 76.62
9/18/2014 08:00 to 7:10 75.67 75.24 74.27 74.97 75.20 75.20
9/18/2014 07:00 to 6:10 75.24 74.52 74.80 73.89 73.52 73.72
9/18/2014 06:00 to 5:10 73.59 74.92 73.55 72.57 73.19 74.12
9/18/2014 05:00 to 4:10 73.89 72.53 72.78 72.32 73.55 72.97
9/18/2014 04:00 to 3:10 72.57 72.68 73.25 72.04 72.47 72.80
9/18/2014 03:00 to 2:10 72.19 71.96 72.19 72.08 70.96 72.06
9/18/2014 02:00 to 1:10 72.04 71.53 70.58 71.38 70.03 70.73
9/18/2014 01:00 to 0:10 71.09 70.05 70.64 72.15 71.64 71.60
9/18/2014 00:00 to 23:10 71.38 70.77 71.55 72.44 71.49 73.52
9/17/2014 23:00 to 22:10 73.72 73.23 72.87 72.74 73.19 72.06
9/17/2014 22:00 to 21:10 73.16 74.05 74.35 74.90 75.03 74.73
9/17/2014 21:00 to 20:10 75.73 75.41 74.99 74.95 75.22 74.95
9/17/2014 20:00 to 19:10 75.67 74.92 75.64 75.20 76.41 76.17
9/17/2014 19:00 to 18:10 75.86 75.86 75.84 76.15 75.43 75.92
9/17/2014 18:00 to 17:10 75.43 75.24 75.24 75.39 76.51 76.73
9/17/2014 17:00 to 16:10 75.14 75.92 77.15 76.66 76.56 77.68
9/17/2014 16:00 to 15:10 76.98 80.50 81.73 81.92 82.53 81.11
9/17/2014 15:00 to 14:10 81.07 82.55 83.74 83.06 82.68 83.61
9/17/2014 14:00 to 13:10 83.87 83.76 84.40 83.04 82.49 81.96
9/17/2014 13:00 to 12:10 82.43 82.77 82.34 82.22 82.62 83.08
9/17/2014 12:00 to 11:10 83.34 84.06 84.46 84.70 84.74 85.35
9/17/2014 11:00 to 10:10 84.29 82.45 82.00 81.83 81.96 81.37
9/17/2014 10:00 to 9:10 81.54 81.24 81.05 80.67 81.30 81.56
9/17/2014 09:00 to 8:10 80.77 80.94 80.75 80.44 80.54 80.50
9/17/2014 08:00 to 7:10 80.20 79.88 79.86 79.74 79.16 79.12
9/17/2014 07:00 to 6:10 79.48 79.40 79.50 79.52 79.71 79.74
9/17/2014 06:00 to 5:10 79.50 79.42 79.46 78.97 79.14 79.18
9/17/2014 05:00 to 4:10 79.14 78.65 77.19 76.96 76.94 76.09
9/17/2014 04:00 to 3:10 75.77 75.88 75.94 75.62 76.05 76.22
9/17/2014 03:00 to 2:10 75.94 74.61 75.24 74.42 74.18 74.48
9/17/2014 02:00 to 1:10 74.01 73.65 73.50 74.22 73.46 72.85
9/17/2014 01:00 to 0:10 73.16 72.17 72.63 73.12 73.55 73.78
9/17/2014 00:00 to 23:10 73.67 73.69 73.21 74.88 75.43 76.11
9/16/2014 23:00 to 22:10 76.26 76.43 76.45 76.73 77.09 77.17
9/16/2014 22:00 to 21:10 77.62 77.91 78.38 78.36 78.12 78.00
9/16/2014 21:00 to 20:10 77.70 77.85 77.49 77.00 77.40 77.76
9/16/2014 20:00 to 19:10 77.59 77.98 76.83 76.68 76.94 77.19
9/16/2014 19:00 to 18:10 74.58 70.71 70.26 69.35 69.39 71.36
9/16/2014 18:00 to 17:10 72.04 71.98 73.02 73.02 73.95 74.50
9/16/2014 17:00 to 16:10 73.84 73.80 73.93 74.08 73.69 74.12
9/16/2014 16:00 to 15:10 73.74 74.01 73.84 74.27 75.28 75.24
9/16/2014 15:00 to 14:10 76.13 77.89 77.17 76.43 76.51 76.90
9/16/2014 14:00 to 13:10 76.58 76.20 76.90 76.81 76.94 77.28
9/16/2014 13:00 to 12:10 77.23 76.73 76.43 76.58 76.17 77.17
9/16/2014 12:00 to 11:10 77.28 77.09 76.56 76.94 77.57 77.19
9/16/2014 11:00 to 10:10 76.75 76.79 76.87 77.00 77.21 78.38
9/16/2014 10:00 to 9:10 78.44 77.70 77.64 77.64 77.21 77.57
9/16/2014 09:00 to 8:10 77.87 77.74 77.89 78.36 77.89 77.51
9/16/2014 08:00 to 7:10 77.36 77.43 77.45 76.92 77.51 77.53
9/16/2014 07:00 to 6:10 77.28 77.53 76.96 77.02 77.51 77.49
9/16/2014 06:00 to 5:10 77.36 77.59 77.96 78.21 78.17 77.98
9/16/2014 05:00 to 4:10 78.51 78.99 78.63 78.12 77.62 77.17
9/16/2014 04:00 to 3:10 77.40 77.79 77.66 78.02 78.12 78.04
9/16/2014 03:00 to 2:10 77.87 77.55 77.96 77.47 78.12 78.65
9/16/2014 02:00 to 1:10 78.29 77.19 76.34 76.13 75.69 75.45
9/16/2014 01:00 to 0:10 75.77 75.16 75.33 76.17 77.13 77.21